Time;durP1;ratioP1;P1;durP2;ratioP2;P2;SDS_P1;SDS_P2;PMS_P1;PMS_P2;Temp;Humidity;BMP_temperature;BMP_pressure;BME280_temperature;BME280_humidity;BME280_pressure;Samples;Min_cycle;Max_cycle;Signal;HPM_P1;HPM_P2
2024/01/31 00:01:30;;;;;;;6.60;4.00;;;11.00;99.90;;;;;;5112585;28;20563;-76
2024/01/31 00:03:56;;;;;;;9.90;4.60;;;11.00;99.90;;;;;;5093971;28;20175;-76
2024/01/31 00:06:22;;;;;;;5.13;3.53;;;10.90;99.90;;;;;;5093764;28;20969;-77
2024/01/31 00:08:47;;;;;;;6.60;4.20;;;11.00;99.90;;;;;;5094416;28;20175;-76
2024/01/31 00:11:13;;;;;;;4.63;3.60;;;10.90;99.90;;;;;;5096120;28;20199;-77
2024/01/31 00:13:39;;;;;;;4.90;3.67;;;10.90;99.90;;;;;;5111389;28;20206;-76
2024/01/31 00:16:05;;;;;;;7.40;3.77;;;10.90;99.90;;;;;;5093581;28;20506;-76
2024/01/31 00:18:31;;;;;;;7.30;5.07;;;10.90;99.90;;;;;;5094234;28;20175;-76
2024/01/31 00:20:57;;;;;;;7.10;5.17;;;10.90;99.90;;;;;;5093594;28;20256;-76
2024/01/31 00:23:23;;;;;;;6.03;5.07;;;10.90;99.90;;;;;;5095145;28;20240;-76
2024/01/31 00:25:49;;;;;;;6.15;5.05;;;10.90;99.90;;;;;;5083632;28;20540;-76
2024/01/31 00:28:15;;;;;;;7.90;5.55;;;10.90;99.90;;;;;;5084397;28;20163;-77
2024/01/31 00:30:41;;;;;;;9.50;5.73;;;10.80;99.90;;;;;;5093585;28;20202;-76
2024/01/31 00:33:07;;;;;;;9.03;6.30;;;10.80;99.90;;;;;;5102007;28;20193;-76
2024/01/31 00:35:32;;;;;;;12.67;6.30;;;10.80;99.90;;;;;;5081887;28;20205;-76
2024/01/31 00:37:58;;;;;;;9.10;6.37;;;10.80;99.90;;;;;;5089671;28;20167;-76
2024/01/31 00:40:23;;;;;;;9.93;5.57;;;10.80;99.90;;;;;;5085008;28;20289;-76
2024/01/31 00:42:49;;;;;;;8.67;6.03;;;10.80;99.90;;;;;;5076558;28;20562;-76
2024/01/31 00:45:15;;;;;;;8.23;5.90;;;10.80;99.90;;;;;;5076913;28;20176;-77
2024/01/31 00:47:41;;;;;;;9.60;6.30;;;10.70;99.90;;;;;;5114126;28;20167;-76
2024/01/31 00:50:07;;;;;;;8.23;6.27;;;10.80;99.90;;;;;;5112422;28;20174;-76
2024/01/31 00:52:33;;;;;;;8.73;5.10;;;10.70;99.90;;;;;;5075971;28;20691;-76
2024/01/31 00:54:58;;;;;;;8.03;5.90;;;10.70;99.90;;;;;;5076286;28;20281;-76
2024/01/31 00:57:24;;;;;;;8.00;6.47;;;10.70;99.90;;;;;;5076057;28;20175;-76
2024/01/31 00:59:50;;;;;;;8.40;6.17;;;10.70;99.90;;;;;;5076475;28;20170;-76
2024/01/31 01:02:16;;;;;;;8.73;5.80;;;10.70;99.90;;;;;;5110886;28;20575;-76
2024/01/31 01:04:42;;;;;;;9.82;6.65;;;10.60;99.90;;;;;;5093132;28;20179;-75
2024/01/31 01:07:08;;;;;;;10.13;6.95;;;10.70;99.90;;;;;;5080854;28;20167;-76
2024/01/31 01:09:34;;;;;;;9.05;7.68;;;10.60;99.90;;;;;;5100829;28;20182;-76
2024/01/31 01:12:01;;;;;;;9.18;7.45;;;10.60;99.90;;;;;;5101900;28;20262;-76
2024/01/31 01:14:27;;;;;;;8.70;7.10;;;10.60;99.90;;;;;;5081894;28;20199;-76
2024/01/31 01:16:53;;;;;;;11.60;7.70;;;10.60;99.90;;;;;;5083658;28;20209;-76
2024/01/31 01:19:18;;;;;;;8.70;7.30;;;10.60;99.90;;;;;;5099604;28;20239;-76
2024/01/31 01:21:44;;;;;;;8.53;6.50;;;10.50;99.90;;;;;;5081158;28;20261;-75
2024/01/31 01:24:10;;;;;;;7.80;6.30;;;10.60;99.90;;;;;;5090030;28;20613;-75
2024/01/31 01:26:42;;;;;;;9.60;7.27;;;10.50;99.90;;;;;;5094030;28;20585;-74
2024/01/31 01:29:07;;;;;;;10.27;8.07;;;10.50;99.90;;;;;;5091940;28;20175;-74
2024/01/31 01:31:33;;;;;;;8.87;6.67;;;10.50;99.90;;;;;;5068504;28;20213;-74
2024/01/31 01:33:59;;;;;;;8.00;6.53;;;10.50;99.90;;;;;;5092214;28;20202;-75
2024/01/31 01:36:25;;;;;;;10.40;8.07;;;10.50;99.90;;;;;;5091938;28;20581;-75
2024/01/31 01:38:51;;;;;;;9.68;7.75;;;10.50;99.90;;;;;;5075806;28;20262;-75
2024/01/31 01:41:17;;;;;;;11.85;8.52;;;10.50;99.90;;;;;;5091483;28;20199;-75
2024/01/31 01:43:43;;;;;;;9.57;7.20;;;10.40;99.90;;;;;;5087484;28;20534;-74
2024/01/31 01:46:12;;;;;;;9.67;7.30;;;10.40;99.90;;;;;;5092279;28;20585;-74
2024/01/31 01:48:39;;;;;;;9.65;7.32;;;10.40;99.90;;;;;;5075862;28;20179;-74
2024/01/31 01:51:06;;;;;;;8.88;6.63;;;10.40;99.90;;;;;;5091810;28;20195;-74
2024/01/31 01:53:35;;;;;;;9.30;6.65;;;10.40;99.90;;;;;;5092089;28;20324;-74
2024/01/31 01:56:04;;;;;;;9.40;7.20;;;10.40;99.90;;;;;;5084463;28;20167;-73
2024/01/31 01:58:31;;;;;;;8.23;6.90;;;10.40;99.90;;;;;;5092412;28;20174;-74
2024/01/31 02:01:00;;;;;;;11.55;7.90;;;10.40;99.90;;;;;;5110714;28;20278;-74
2024/01/31 02:03:30;;;;;;;11.57;8.20;;;10.40;99.90;;;;;;5094649;28;20308;-74
2024/01/31 02:05:57;;;;;;;11.63;8.15;;;10.40;99.90;;;;;;5094761;28;20182;-74
2024/01/31 02:08:23;;;;;;;9.80;8.60;;;10.40;99.90;;;;;;5109586;28;20183;-74
2024/01/31 02:10:49;;;;;;;11.15;8.15;;;10.40;99.90;;;;;;5092486;28;20187;-74
2024/01/31 02:13:15;;;;;;;11.30;8.10;;;10.40;99.90;;;;;;5091886;28;20181;-74
2024/01/31 02:15:54;;;;;;;9.50;8.23;;;10.40;99.90;;;;;;5077584;28;20618;-74
2024/01/31 02:18:21;;;;;;;12.15;9.02;;;10.40;99.90;;;;;;5089521;28;20211;-74
2024/01/31 02:20:47;;;;;;;12.50;9.18;;;10.30;99.90;;;;;;5092038;28;20218;-74
2024/01/31 02:23:13;;;;;;;12.63;8.15;;;10.40;99.90;;;;;;5091695;28;20200;-74
2024/01/31 02:25:39;;;;;;;9.85;8.68;;;10.40;99.90;;;;;;5092218;28;20253;-75
2024/01/31 02:28:05;;;;;;;11.43;8.03;;;10.30;99.90;;;;;;5110555;28;20728;-75
2024/01/31 02:30:31;;;;;;;11.27;8.07;;;10.30;99.90;;;;;;5067109;28;20191;-74
2024/01/31 02:32:56;;;;;;;9.77;8.43;;;10.30;99.90;;;;;;5085080;28;20673;-75
2024/01/31 02:35:25;;;;;;;13.97;9.80;;;10.30;99.90;;;;;;5108574;28;20587;-75
2024/01/31 02:37:51;;;;;;;10.05;8.50;;;10.30;99.90;;;;;;5093642;28;20188;-75
2024/01/31 02:40:17;;;;;;;11.30;8.73;;;10.30;99.90;;;;;;5107639;28;20187;-75
2024/01/31 02:42:43;;;;;;;11.30;8.63;;;10.30;99.90;;;;;;5095445;28;20171;-74
2024/01/31 02:45:09;;;;;;;15.45;9.05;;;10.40;99.90;;;;;;5095953;28;20634;-76
2024/01/31 02:47:35;;;;;;;11.70;9.70;;;10.40;99.90;;;;;;5113465;28;20224;-75
2024/01/31 02:50:02;;;;;;;11.20;8.43;;;10.30;99.90;;;;;;5113881;28;20189;-75
2024/01/31 02:52:28;;;;;;;10.95;9.00;;;10.30;99.90;;;;;;5086868;28;20180;-75
2024/01/31 02:54:54;;;;;;;12.70;8.93;;;10.30;99.90;;;;;;5078826;28;20270;-75
2024/01/31 02:57:20;;;;;;;14.50;11.30;;;10.30;99.90;;;;;;5113714;28;20632;-75
2024/01/31 02:59:45;;;;;;;13.60;10.07;;;10.30;99.90;;;;;;5113843;28;20174;-75
2024/01/31 03:02:14;;;;;;;11.00;9.00;;;10.30;99.90;;;;;;5090652;28;20199;-75
2024/01/31 03:04:39;;;;;;;12.27;10.18;;;10.30;99.90;;;;;;5104801;28;20235;-75
2024/01/31 03:07:05;;;;;;;10.50;8.90;;;10.30;99.90;;;;;;5095342;28;20265;-75
2024/01/31 03:09:31;;;;;;;14.20;11.00;;;10.30;99.90;;;;;;5095394;28;20201;-75
2024/01/31 03:11:56;;;;;;;13.73;10.33;;;10.30;99.90;;;;;;5095322;28;20198;-75
2024/01/31 03:14:22;;;;;;;13.87;10.20;;;10.30;99.90;;;;;;5094463;28;20210;-76
2024/01/31 03:16:48;;;;;;;14.33;10.07;;;10.30;99.90;;;;;;5089965;28;20255;-75
2024/01/31 03:19:15;;;;;;;14.70;10.93;;;10.30;99.90;;;;;;5095175;28;20640;-75
2024/01/31 03:21:41;;;;;;;14.30;10.48;;;10.30;99.90;;;;;;5062672;28;20571;-75
2024/01/31 03:24:06;;;;;;;16.98;12.45;;;10.30;99.90;;;;;;5086074;28;20190;-76
2024/01/31 03:26:32;;;;;;;14.50;10.70;;;10.30;99.90;;;;;;5077888;28;20191;-76
2024/01/31 03:29:01;;;;;;;13.63;10.87;;;10.30;99.90;;;;;;5116752;22;20179;-74
2024/01/31 03:31:30;;;;;;;14.52;10.77;;;10.30;99.90;;;;;;5110578;28;20613;-76
2024/01/31 03:33:56;;;;;;;13.13;10.75;;;10.30;99.90;;;;;;5107577;28;20279;-76
2024/01/31 03:36:21;;;;;;;17.70;10.90;;;10.30;99.90;;;;;;5088687;28;20179;-76
2024/01/31 03:38:47;;;;;;;16.40;12.90;;;10.30;99.90;;;;;;5093333;28;20184;-76
2024/01/31 03:41:12;;;;;;;13.87;11.10;;;10.30;99.90;;;;;;5051920;28;20200;-77
2024/01/31 03:43:38;;;;;;;16.77;12.37;;;10.30;99.90;;;;;;5046610;28;20328;-76
2024/01/31 03:46:05;;;;;;;14.00;10.80;;;10.30;99.90;;;;;;5072561;28;20198;-76
2024/01/31 03:48:31;;;;;;;13.50;10.95;;;10.30;99.90;;;;;;5093020;28;20180;-76
2024/01/31 03:50:58;;;;;;;15.93;12.63;;;10.30;99.90;;;;;;5100624;28;20207;-77
2024/01/31 03:53:25;;;;;;;18.27;13.80;;;10.30;99.90;;;;;;5066485;28;20583;-76
2024/01/31 03:55:51;;;;;;;14.45;11.18;;;10.30;99.90;;;;;;5067586;28;20203;-76
2024/01/31 03:58:17;;;;;;;13.40;10.93;;;10.30;99.90;;;;;;5071339;28;20658;-76
2024/01/31 04:00:43;;;;;;;15.90;10.30;;;10.30;99.90;;;;;;5089295;28;20196;-76
2024/01/31 04:03:09;;;;;;;13.45;9.75;;;10.30;99.90;;;;;;5097469;28;20180;-76
2024/01/31 04:05:35;;;;;;;14.00;11.30;;;10.30;99.90;;;;;;5088109;28;20172;-78
2024/01/31 04:08:02;;;;;;;15.60;11.70;;;10.30;99.90;;;;;;5065946;28;20176;-76
2024/01/31 04:10:27;;;;;;;15.65;12.00;;;10.30;99.90;;;;;;5084879;28;20285;-76
2024/01/31 04:12:53;;;;;;;15.67;11.80;;;10.30;99.90;;;;;;5071618;28;20176;-76
2024/01/31 04:15:19;;;;;;;15.83;11.00;;;10.30;99.90;;;;;;5073210;28;20636;-75
2024/01/31 04:17:45;;;;;;;16.10;12.90;;;10.30;99.90;;;;;;5068294;28;20240;-76
2024/01/31 04:20:11;;;;;;;16.57;12.20;;;10.30;99.90;;;;;;5068975;28;20198;-76
2024/01/31 04:22:40;;;;;;;16.33;12.18;;;10.30;99.90;;;;;;5035430;28;20172;-78
2024/01/31 04:25:06;;;;;;;18.42;13.32;;;10.30;99.90;;;;;;5044252;28;20203;-76
2024/01/31 04:27:32;;;;;;;16.10;12.47;;;10.30;99.90;;;;;;5053602;28;20210;-76
2024/01/31 04:29:58;;;;;;;16.67;13.17;;;10.30;99.90;;;;;;5070784;28;20636;-76
2024/01/31 04:32:24;;;;;;;15.60;12.32;;;10.30;99.90;;;;;;5071194;28;20188;-76
2024/01/31 04:34:50;;;;;;;16.03;12.80;;;10.30;99.90;;;;;;5053555;28;20208;-76
2024/01/31 04:37:16;;;;;;;16.23;12.18;;;10.30;99.90;;;;;;5079582;28;20186;-76
2024/01/31 04:39:43;;;;;;;20.60;14.90;;;10.30;99.90;;;;;;5071149;28;20196;-76
2024/01/31 04:42:09;;;;;;;19.42;13.93;;;10.30;99.90;;;;;;5053540;28;20607;-76
2024/01/31 04:44:35;;;;;;;16.93;13.53;;;10.30;99.90;;;;;;5052502;28;20212;-77
2024/01/31 04:47:01;;;;;;;14.60;11.52;;;10.30;99.90;;;;;;5076321;28;20585;-75
2024/01/31 04:49:27;;;;;;;17.83;13.60;;;10.20;99.90;;;;;;5054530;28;20231;-74
2024/01/31 04:51:53;;;;;;;15.10;10.70;;;10.20;99.90;;;;;;5053238;28;20741;-75
2024/01/31 04:54:19;;;;;;;11.73;7.95;;;10.20;99.90;;;;;;5051982;28;21108;-75
2024/01/31 04:56:45;;;;;;;9.80;7.20;;;10.10;99.90;;;;;;5036294;28;20179;-75
2024/01/31 04:59:11;;;;;;;11.60;7.07;;;10.00;99.90;;;;;;5036159;28;20935;-75
2024/01/31 05:01:37;;;;;;;7.47;6.27;;;10.00;99.90;;;;;;5035804;28;20311;-74
2024/01/31 05:04:03;;;;;;;7.72;5.88;;;10.00;99.90;;;;;;5035844;28;20184;-75
2024/01/31 05:06:29;;;;;;;9.33;6.37;;;9.90;99.90;;;;;;5036121;28;20191;-75
2024/01/31 05:08:55;;;;;;;7.80;5.85;;;9.90;99.90;;;;;;5036253;28;20681;-75
2024/01/31 05:11:20;;;;;;;9.23;5.70;;;9.80;99.90;;;;;;5052806;28;20271;-75
2024/01/31 05:13:46;;;;;;;6.23;4.90;;;9.70;99.90;;;;;;5052049;28;20682;-75
2024/01/31 05:16:12;;;;;;;9.93;5.80;;;9.70;99.90;;;;;;5052969;28;20527;-74
2024/01/31 05:18:39;;;;;;;7.50;5.13;;;9.60;99.90;;;;;;5052458;28;20283;-74
2024/01/31 05:21:04;;;;;;;6.75;5.00;;;9.60;99.90;;;;;;5070601;28;20255;-75
2024/01/31 05:23:30;;;;;;;9.00;5.43;;;9.50;99.90;;;;;;5078517;28;20181;-74
2024/01/31 05:25:56;;;;;;;11.57;5.60;;;9.50;99.90;;;;;;5052507;28;20366;-74
2024/01/31 05:28:22;;;;;;;9.60;5.77;;;9.50;99.90;;;;;;5052122;28;20594;-74
2024/01/31 05:30:48;;;;;;;6.37;5.50;;;9.40;99.90;;;;;;5052458;28;20689;-74
2024/01/31 05:33:13;;;;;;;9.50;4.50;;;9.40;99.90;;;;;;5077767;28;20571;-75
2024/01/31 05:35:39;;;;;;;9.90;4.50;;;9.40;99.90;;;;;;5052946;28;20236;-75
2024/01/31 05:38:05;;;;;;;7.23;5.13;;;9.40;99.90;;;;;;5035789;28;20168;-74
2024/01/31 05:40:31;;;;;;;9.30;5.80;;;9.40;99.90;;;;;;5051674;28;20243;-74
2024/01/31 05:42:57;;;;;;;8.65;5.10;;;9.40;99.90;;;;;;5069822;28;20179;-75
2024/01/31 05:45:24;;;;;;;10.93;6.20;;;9.40;99.90;;;;;;5070305;28;20172;-75
2024/01/31 05:47:50;;;;;;;9.25;5.30;;;9.40;99.90;;;;;;5078476;28;20194;-75
2024/01/31 05:50:16;;;;;;;9.90;6.30;;;9.40;99.90;;;;;;5035562;28;20196;-75
2024/01/31 05:52:42;;;;;;;10.27;5.60;;;9.40;99.90;;;;;;5051753;28;20603;-75
2024/01/31 05:55:07;;;;;;;10.20;7.23;;;9.40;99.90;;;;;;5052317;28;20988;-75
2024/01/31 05:57:33;;;;;;;7.77;5.77;;;9.40;99.90;;;;;;5035257;28;20183;-75
2024/01/31 05:59:59;;;;;;;11.77;7.90;;;9.40;99.90;;;;;;5070128;28;20607;-75
2024/01/31 06:02:25;;;;;;;9.98;6.90;;;9.40;99.90;;;;;;5072195;28;20694;-75
2024/01/31 06:04:51;;;;;;;12.27;6.93;;;9.40;99.90;;;;;;5069945;28;20172;-75
2024/01/31 06:07:17;;;;;;;8.90;6.30;;;9.40;99.90;;;;;;5035204;28;20181;-75
2024/01/31 06:09:43;;;;;;;8.02;5.65;;;9.40;99.90;;;;;;5052087;28;20204;-75
2024/01/31 06:12:09;;;;;;;7.33;5.13;;;9.40;99.90;;;;;;5052370;28;20172;-75
2024/01/31 06:14:38;;;;;;;9.63;5.97;;;9.40;99.90;;;;;;5055400;28;20204;-75
2024/01/31 06:17:03;;;;;;;8.20;6.20;;;9.40;99.90;;;;;;5073803;28;20610;-75
2024/01/31 06:19:30;;;;;;;8.43;6.63;;;9.40;99.90;;;;;;5055912;28;20226;-74
2024/01/31 06:21:55;;;;;;;9.70;6.80;;;9.40;99.90;;;;;;5073979;28;20571;-75
2024/01/31 06:24:21;;;;;;;10.40;6.63;;;9.50;99.90;;;;;;5073365;28;20180;-75
2024/01/31 06:26:47;;;;;;;8.27;6.37;;;9.50;99.90;;;;;;5055432;28;20180;-75
2024/01/31 06:29:18;;;;;;;8.97;6.93;;;9.50;99.90;;;;;;5055655;28;20254;-75
2024/01/31 06:31:47;;;;;;;9.63;7.05;;;9.50;99.90;;;;;;5077197;28;20192;-75
2024/01/31 06:34:13;;;;;;;10.23;6.93;;;9.50;99.90;;;;;;5079045;28;20196;-75
2024/01/31 06:36:39;;;;;;;9.63;5.97;;;9.50;99.90;;;;;;5043789;28;20188;-74
2024/01/31 06:39:05;;;;;;;10.67;7.07;;;9.50;99.90;;;;;;5078844;28;20174;-74
2024/01/31 06:41:32;;;;;;;12.73;7.37;;;9.50;99.90;;;;;;5061294;28;20176;-75
2024/01/31 06:43:57;;;;;;;8.73;6.55;;;9.50;99.90;;;;;;5064762;28;20258;-76
2024/01/31 06:46:23;;;;;;;8.83;6.33;;;9.40;99.90;;;;;;5063581;28;20196;-75
2024/01/31 06:48:49;;;;;;;8.70;6.90;;;9.50;99.90;;;;;;5058001;28;20177;-75
2024/01/31 06:51:15;;;;;;;10.13;6.70;;;9.40;99.90;;;;;;5055759;28;20196;-76
2024/01/31 06:53:40;;;;;;;10.90;6.90;;;9.40;99.90;;;;;;5054655;28;20902;-76
2024/01/31 06:56:06;;;;;;;8.90;6.50;;;9.40;99.90;;;;;;5046656;28;20599;-76
2024/01/31 06:58:32;;;;;;;8.60;6.13;;;9.40;99.90;;;;;;5038835;28;20176;-76
2024/01/31 07:01:01;;;;;;;7.28;6.45;;;9.40;99.90;;;;;;5072659;28;20626;-76
2024/01/31 07:03:27;;;;;;;8.05;5.70;;;9.40;99.90;;;;;;5037854;28;20172;-76
2024/01/31 07:05:53;;;;;;;8.33;6.27;;;9.40;99.90;;;;;;5073275;28;20595;-79
2024/01/31 07:08:18;;;;;;;10.73;7.03;;;9.40;99.90;;;;;;5054918;28;20267;-76
2024/01/31 07:10:44;;;;;;;7.93;5.90;;;9.50;99.90;;;;;;5055002;28;21115;-76
2024/01/31 07:13:10;;;;;;;10.20;6.53;;;9.40;99.90;;;;;;5054766;28;20526;-76
2024/01/31 07:15:35;;;;;;;10.30;5.53;;;9.50;99.90;;;;;;5055987;28;20620;-77
2024/01/31 07:18:02;;;;;;;8.83;6.10;;;9.50;99.90;;;;;;5059362;28;20589;-77
2024/01/31 07:20:28;;;;;;;13.00;5.18;;;9.50;99.90;;;;;;5024522;28;20292;-77
2024/01/31 07:22:53;;;;;;;9.20;4.77;;;9.50;99.90;;;;;;5054036;28;20608;-77
2024/01/31 07:25:19;;;;;;;7.90;4.50;;;9.50;99.90;;;;;;5054631;28;20176;-77
2024/01/31 07:27:45;;;;;;;7.17;4.83;;;9.50;99.90;;;;;;5054311;28;20589;-77
2024/01/31 07:30:11;;;;;;;7.53;4.63;;;9.50;99.90;;;;;;5060278;28;20207;-77
2024/01/31 07:32:40;;;;;;;7.15;4.28;;;9.50;99.90;;;;;;5039658;28;20276;-77
2024/01/31 07:35:09;;;;;;;5.85;4.30;;;9.50;99.90;;;;;;5072488;28;20196;-77
2024/01/31 07:37:44;;;;;;;6.65;4.68;;;9.50;99.90;;;;;;5038132;28;20180;-77
2024/01/31 07:40:18;;;;;;;7.63;6.68;;;9.50;99.90;;;;;;5055782;28;20199;-77
2024/01/31 07:42:44;;;;;;;7.33;4.90;;;9.60;99.90;;;;;;5054033;28;20172;-77
2024/01/31 07:45:10;;;;;;;7.50;5.17;;;9.50;99.90;;;;;;5037762;28;20177;-76
2024/01/31 07:47:37;;;;;;;8.43;4.43;;;9.60;99.90;;;;;;5062134;28;20538;-76
2024/01/31 07:50:05;;;;;;;6.53;4.35;;;9.60;99.90;;;;;;5037659;28;20611;-77
2024/01/31 07:52:31;;;;;;;9.38;5.80;;;9.60;99.90;;;;;;5064758;28;20243;-76
2024/01/31 07:54:56;;;;;;;10.00;5.37;;;9.60;99.90;;;;;;5071886;28;20283;-77
2024/01/31 07:57:22;;;;;;;8.00;4.63;;;9.60;99.90;;;;;;5053557;28;20282;-77
2024/01/31 07:59:49;;;;;;;7.63;5.33;;;9.60;99.90;;;;;;5054123;28;20274;-77
2024/01/31 08:02:14;;;;;;;10.30;6.57;;;9.60;99.90;;;;;;5036987;28;20176;-76
2024/01/31 08:04:42;;;;;;;9.10;5.10;;;9.70;99.90;;;;;;5070805;28;20180;-77
2024/01/31 08:07:12;;;;;;;11.85;6.05;;;9.70;99.90;;;;;;5071337;28;20173;-77
2024/01/31 08:09:41;;;;;;;9.95;5.20;;;9.70;99.90;;;;;;5036818;28;20192;-77
2024/01/31 08:12:07;;;;;;;11.30;7.18;;;9.70;99.90;;;;;;5053973;28;20223;-77
2024/01/31 08:14:33;;;;;;;10.15;6.95;;;9.70;99.90;;;;;;5036419;28;20204;-77
2024/01/31 08:16:59;;;;;;;10.80;7.63;;;9.70;99.90;;;;;;5053634;28;20256;-77
2024/01/31 08:19:25;;;;;;;10.17;6.60;;;9.70;99.90;;;;;;5036951;28;20279;-77
2024/01/31 08:21:51;;;;;;;12.30;6.32;;;9.70;99.90;;;;;;5053294;28;20529;-77
2024/01/31 08:24:18;;;;;;;9.80;5.23;;;9.80;99.90;;;;;;5053294;28;20325;-77
2024/01/31 08:26:44;;;;;;;11.57;6.13;;;9.80;99.90;;;;;;5053418;28;20557;-77
2024/01/31 08:29:10;;;;;;;8.80;6.05;;;9.80;99.90;;;;;;5055329;28;20169;-77
2024/01/31 08:31:36;;;;;;;8.80;6.30;;;9.80;99.90;;;;;;5054264;28;20241;-77
2024/01/31 08:34:02;;;;;;;8.53;6.30;;;9.80;99.90;;;;;;5036217;28;20630;-77
2024/01/31 08:36:28;;;;;;;10.05;8.15;;;9.90;99.90;;;;;;5035836;28;20180;-77
2024/01/31 08:38:54;;;;;;;12.50;8.20;;;9.90;99.90;;;;;;5071460;28;20184;-77
2024/01/31 08:41:19;;;;;;;13.57;9.70;;;9.90;99.90;;;;;;5071339;28;20204;-77
2024/01/31 08:43:46;;;;;;;15.70;10.03;;;9.90;99.90;;;;;;5066504;28;20184;-77
2024/01/31 08:46:13;;;;;;;14.80;9.77;;;9.90;99.90;;;;;;5061540;28;20202;-76
2024/01/31 08:48:39;;;;;;;14.73;8.90;;;10.00;99.90;;;;;;5062042;28;20225;-76
2024/01/31 08:51:08;;;;;;;15.10;10.70;;;10.00;99.90;;;;;;5082010;28;20207;-76
2024/01/31 08:53:34;;;;;;;17.40;11.85;;;10.00;99.90;;;;;;5057236;28;20573;-76
2024/01/31 08:56:00;;;;;;;19.40;12.07;;;10.00;99.90;;;;;;5039246;28;20282;-77
2024/01/31 08:58:26;;;;;;;18.95;12.68;;;10.10;99.90;;;;;;5053673;28;20169;-77
2024/01/31 09:00:52;;;;;;;19.67;13.37;;;10.10;99.90;;;;;;5038058;28;20703;-77
2024/01/31 09:03:18;;;;;;;13.80;10.00;;;10.10;99.90;;;;;;5071135;28;20638;-77
2024/01/31 09:05:44;;;;;;;16.70;11.98;;;10.10;99.90;;;;;;5036839;28;20259;-77
2024/01/31 09:08:10;;;;;;;18.43;12.70;;;10.20;99.90;;;;;;5071635;28;20266;-76
2024/01/31 09:10:36;;;;;;;19.20;12.88;;;10.20;99.90;;;;;;5053594;28;20203;-77
2024/01/31 09:13:01;;;;;;;17.17;12.87;;;10.20;99.90;;;;;;5070923;28;20665;-77
2024/01/31 09:15:27;;;;;;;18.17;12.00;;;10.20;99.90;;;;;;5053525;28;20568;-77
2024/01/31 09:17:53;;;;;;;18.03;12.07;;;10.20;99.90;;;;;;5071429;28;20180;-78
2024/01/31 09:20:18;;;;;;;15.50;11.70;;;10.20;99.90;;;;;;5052568;28;20704;-76
2024/01/31 09:22:44;;;;;;;16.80;12.67;;;10.20;99.90;;;;;;5054154;28;20176;-77
2024/01/31 09:25:10;;;;;;;19.25;13.25;;;10.30;99.90;;;;;;5052891;28;20593;-77
2024/01/31 09:27:36;;;;;;;16.10;12.20;;;10.30;99.90;;;;;;5052446;28;20242;-77
2024/01/31 09:30:03;;;;;;;21.63;14.40;;;10.30;99.90;;;;;;5070136;28;20602;-77
2024/01/31 09:32:29;;;;;;;23.75;13.57;;;10.30;99.90;;;;;;5052226;28;20655;-77
2024/01/31 09:34:55;;;;;;;16.17;11.87;;;10.30;99.90;;;;;;5051850;28;20200;-77
2024/01/31 09:37:20;;;;;;;21.77;14.93;;;10.30;99.90;;;;;;5070142;28;20597;-77
2024/01/31 09:39:46;;;;;;;19.87;13.77;;;10.30;99.90;;;;;;5052359;28;20728;-78
2024/01/31 09:42:15;;;;;;;20.87;14.83;;;10.30;99.90;;;;;;5057218;28;20175;-77
2024/01/31 09:44:41;;;;;;;18.50;12.88;;;10.40;99.90;;;;;;5073721;28;20184;-76
2024/01/31 09:47:09;;;;;;;22.20;13.50;;;10.40;99.90;;;;;;5072362;28;20183;-76
2024/01/31 09:49:35;;;;;;;20.00;12.90;;;10.40;99.90;;;;;;5056046;28;20223;-76
2024/01/31 09:52:03;;;;;;;17.57;13.63;;;10.40;99.90;;;;;;5083195;28;20536;-76
2024/01/31 09:54:29;;;;;;;21.35;15.45;;;10.40;99.90;;;;;;5071818;28;20666;-76
2024/01/31 09:56:55;;;;;;;18.57;13.60;;;10.50;99.90;;;;;;5054576;28;20848;-76
2024/01/31 09:59:21;;;;;;;18.80;13.48;;;10.50;99.90;;;;;;5056680;28;20195;-76
2024/01/31 10:01:49;;;;;;;18.40;13.00;;;10.50;99.90;;;;;;5040846;28;20179;-75
2024/01/31 10:04:15;;;;;;;17.30;12.30;;;10.50;99.90;;;;;;5056102;28;20627;-76
2024/01/31 10:06:41;;;;;;;15.53;11.63;;;10.50;99.90;;;;;;5054144;28;20204;-74
2024/01/31 10:09:07;;;;;;;16.30;11.93;;;10.60;99.90;;;;;;5054131;28;20183;-77
2024/01/31 10:11:33;;;;;;;14.52;10.40;;;10.60;99.90;;;;;;5089350;28;20171;-77
2024/01/31 10:13:59;;;;;;;13.90;10.30;;;10.60;99.90;;;;;;5105158;28;20560;-77
2024/01/31 10:16:25;;;;;;;13.83;10.00;;;10.60;99.90;;;;;;5106478;28;20195;-77
2024/01/31 10:18:51;;;;;;;14.70;10.50;;;10.60;99.90;;;;;;5085842;28;21448;-78
2024/01/31 10:21:19;;;;;;;12.07;8.52;;;10.60;99.90;;;;;;5102609;28;20164;-77
2024/01/31 10:23:58;;;;;;;15.38;9.50;;;10.70;99.90;;;;;;5108094;28;20330;-79
2024/01/31 10:26:25;;;;;;;13.23;9.48;;;10.70;99.90;;;;;;5095754;28;20218;-78
2024/01/31 10:28:51;;;;;;;14.55;8.93;;;10.70;99.90;;;;;;5100389;28;20172;-78
2024/01/31 10:31:21;;;;;;;13.45;9.73;;;10.70;99.90;;;;;;5094001;28;20196;-78
2024/01/31 10:33:49;;;;;;;14.95;10.77;;;10.80;99.90;;;;;;5093545;28;20206;-78
2024/01/31 10:36:16;;;;;;;13.63;9.95;;;10.80;99.90;;;;;;5114695;28;20194;-78
2024/01/31 10:38:43;;;;;;;12.98;10.02;;;10.90;99.90;;;;;;5090088;28;20164;-78
2024/01/31 10:41:11;;;;;;;13.32;9.07;;;10.90;99.90;;;;;;5091807;28;20194;-78
2024/01/31 10:43:38;;;;;;;12.50;9.68;;;11.00;99.90;;;;;;5068123;28;20159;-78
2024/01/31 10:46:04;;;;;;;12.85;8.55;;;11.00;99.90;;;;;;5080297;28;20235;-78
2024/01/31 10:48:30;;;;;;;10.00;7.80;;;11.00;99.90;;;;;;5077169;28;20177;-78
2024/01/31 10:50:58;;;;;;;10.27;7.03;;;11.10;99.90;;;;;;5072636;28;20713;-78
2024/01/31 10:53:26;;;;;;;8.70;6.93;;;11.10;99.90;;;;;;5076958;28;20184;-77
2024/01/31 10:55:53;;;;;;;8.85;7.10;;;11.10;99.90;;;;;;5057812;28;20192;-77
2024/01/31 10:58:22;;;;;;;10.48;6.05;;;11.10;99.90;;;;;;5071032;28;20200;-77
2024/01/31 11:00:49;;;;;;;7.05;5.75;;;11.20;99.90;;;;;;5071131;28;20246;-77
2024/01/31 11:03:16;;;;;;;6.35;5.40;;;11.20;99.90;;;;;;5092736;28;20220;-77
2024/01/31 11:05:42;;;;;;;8.35;6.15;;;11.20;99.90;;;;;;5067180;28;20215;-77
2024/01/31 11:08:21;;;;;;;6.47;4.93;;;11.20;99.90;;;;;;5065701;28;20173;-78
2024/01/31 11:10:48;;;;;;;6.07;5.28;;;11.30;99.90;;;;;;5072793;28;20622;-78
2024/01/31 11:13:14;;;;;;;5.40;4.72;;;11.30;99.90;;;;;;5073062;28;20173;-78
2024/01/31 11:15:40;;;;;;;5.05;4.55;;;11.40;99.90;;;;;;5051823;28;20223;-78
2024/01/31 11:18:09;;;;;;;5.28;4.78;;;11.50;99.90;;;;;;5090974;28;20168;-79
2024/01/31 11:20:37;;;;;;;4.50;3.90;;;11.50;99.90;;;;;;5090578;28;20187;-78
2024/01/31 11:23:03;;;;;;;4.35;3.50;;;11.60;99.90;;;;;;5053916;28;20256;-77
2024/01/31 11:25:33;;;;;;;4.53;4.10;;;11.70;99.90;;;;;;5072493;28;20229;-78
2024/01/31 11:28:00;;;;;;;4.28;3.65;;;11.80;99.90;;;;;;5051468;28;20180;-78
2024/01/31 11:30:26;;;;;;;5.25;4.00;;;11.80;99.90;;;;;;5063295;28;20235;-77
2024/01/31 11:32:52;;;;;;;3.97;3.30;;;11.90;99.90;;;;;;5078974;28;20172;-79
2024/01/31 11:35:17;;;;;;;4.17;3.50;;;12.00;99.90;;;;;;5033177;28;20214;-79
2024/01/31 11:37:43;;;;;;;6.40;3.70;;;12.00;99.90;;;;;;5074216;28;20182;-77
2024/01/31 11:40:11;;;;;;;3.80;2.87;;;12.10;99.90;;;;;;5064968;28;20219;-78
2024/01/31 11:42:37;;;;;;;4.73;3.30;;;12.10;99.90;;;;;;5047944;28;20176;-78
2024/01/31 11:45:03;;;;;;;4.18;3.38;;;12.20;99.90;;;;;;5088528;28;20594;-77
2024/01/31 11:47:29;;;;;;;4.82;4.03;;;12.20;99.90;;;;;;5058653;28;20191;-78
2024/01/31 11:50:02;;;;;;;3.57;3.27;;;12.30;99.90;;;;;;5056437;28;20196;-78
2024/01/31 11:52:28;;;;;;;3.65;3.00;;;12.30;99.90;;;;;;5040165;28;21262;-78
2024/01/31 11:54:54;;;;;;;3.60;2.97;;;12.30;99.90;;;;;;5091469;28;20250;-78
2024/01/31 11:57:20;;;;;;;5.35;3.47;;;12.40;99.90;;;;;;5089613;28;20702;-78
2024/01/31 11:59:45;;;;;;;4.13;2.70;;;12.40;99.90;;;;;;5061157;28;20235;-78
2024/01/31 12:02:11;;;;;;;4.80;3.43;;;12.40;99.90;;;;;;5104081;28;20165;-78
2024/01/31 12:04:37;;;;;;;5.30;4.07;;;12.40;99.90;;;;;;5079432;28;20192;-78
2024/01/31 12:07:06;;;;;;;4.60;3.80;;;12.40;99.90;;;;;;5062065;28;20183;-78
2024/01/31 12:09:34;;;;;;;3.90;2.90;;;12.40;99.90;;;;;;5060552;28;20216;-78
2024/01/31 12:12:00;;;;;;;2.90;2.47;;;12.30;99.90;;;;;;5081281;28;20582;-78
2024/01/31 12:14:26;;;;;;;2.97;2.28;;;12.30;99.90;;;;;;5109587;28;20642;-77
2024/01/31 12:16:53;;;;;;;4.00;3.28;;;12.30;99.90;;;;;;5072680;28;20169;-77
2024/01/31 12:19:19;;;;;;;3.97;2.93;;;12.30;99.90;;;;;;5071374;28;20697;-77
2024/01/31 12:21:45;;;;;;;6.40;4.10;;;12.30;99.90;;;;;;5070720;28;20546;-77
2024/01/31 12:24:10;;;;;;;4.87;3.03;;;12.20;99.90;;;;;;5054171;28;20219;-77
2024/01/31 12:26:37;;;;;;;5.37;2.93;;;12.20;99.90;;;;;;5078252;28;20203;-76
2024/01/31 12:29:02;;;;;;;3.65;2.85;;;12.20;99.90;;;;;;5089491;28;20203;-76
2024/01/31 12:31:28;;;;;;;3.63;2.80;;;12.20;99.90;;;;;;5074868;28;20711;-80
2024/01/31 12:33:56;;;;;;;2.80;2.40;;;12.10;99.90;;;;;;5104661;28;20601;-77
2024/01/31 12:36:22;;;;;;;3.15;2.55;;;12.10;99.90;;;;;;5084110;28;20176;-77
2024/01/31 12:38:51;;;;;;;3.47;2.67;;;12.10;99.90;;;;;;5086893;28;20685;-79